Home > Products > Valid Products > TAF

000
FTUS44 KMAF 290000 AAA
TAFMAF
TAF AMD
KMAF 290019Z 2900/2924 29005KT P6SM FEW200
     FM291400 05020G30KT P6SM BKN060=



000
FTUS44 KMAF 282300
TAFMAF
TAF
KMAF 282320Z 2900/2924 26005KT P6SM FEW200
     FM291400 05020G30KT P6SM BKN060=



000
FTUS44 KMAF 281700
TAFMAF
TAF
KMAF 281725Z 2818/2918 26006KT P6SM SCT250
     FM291200 01008KT P6SM SCT250
     FM291500 03015G25KT P6SM BKN250=



000
FTUS44 KMAF 281100
TAFMAF
TAF
KMAF 281139Z 2812/2912 24006KT P6SM SCT250
     FM281700 26010KT P6SM SCT250
     FM290000 23005KT P6SM BKN250=



000
FTUS44 KMAF 280500
TAFMAF
TAF
KMAF 280522Z 2806/2906 23004KT P6SM FEW200
     FM281400 26008KT P6SM FEW250
     FM290000 25005KT P6SM FEW200=



000
FTUS44 KMAF 280300 AAA
TAFMAF
TAF AMD
KMAF 280342Z 2804/2824 23004KT P6SM FEW200
     FM281400 26008KT P6SM FEW250=



000
FTUS44 KMAF 280300 AAA
TAFMAF
TAF AMD
KMAF 280342Z 2804/2824 23004KT P6SM FEW200
     FM281400 26008KT P6SM FEW250=



000
FTUS44 KMAF 272300
TAFMAF
TAF
KMAF 272323Z 2800/2824 21004KT P6SM FEW200
     FM281400 25008KT P6SM FEW250=



000
FTUS44 KMAF 271700
TAFMAF
TAF
KMAF 271720Z 2718/2818 24007KT P6SM FEW150 SCT250=



000
FTUS44 KMAF 271100
TAFMAF
TAF
KMAF 271122Z 2712/2812 26007KT P6SM SCT150 BKN250
     FM280000 22005KT P6SM BKN250=



000
FTUS44 KMAF 270500
TAFMAF
TAF
KMAF 270529Z 2706/2806 25008KT P6SM BKN250
     FM280000 20005KT P6SM SCT250=



000
FTUS44 KMAF 262300
TAFMAF
TAF
KMAF 262329Z 2700/2724 27008KT P6SM BKN250=



000
FTUS44 KMAF 261700
TAFMAF
TAF
KMAF 261729Z 2618/2718 27008KT P6SM BKN250=



000
FTUS44 KMAF 261100
TAFMAF
TAF
KMAF 261123Z 2612/2712 27006KT P6SM SCT250=



000
FTUS44 KMAF 260500
TAFMAF
TAF
KMAF 260520Z 2606/2706 27006KT P6SM FEW250=



    US Dept of Commerce
    National Oceanic and Atmospheric Administration
    National Weather Service
    1325 East West Highway
    Silver Spring, MD 20910
    Page Author: NWS Internet Services Team
Disclaimer
Information Quality
Credits
Glossary
Privacy Policy
Freedom of Information Act (FOIA)
About Us
Career Opportunities